SDM1501 URMM-UNKL
Flight info
| Callsign | SDM1501 |
|---|---|
| Flight time | N/A |
| Altitude | 35000 |
| Route | OGEMO5M OGEMO B967 ROKMO R710 ZG G487 OBATA L988 ATR N60 NINBU A357 LENTA N60 BARKI A357 OMONA B234 OLAPA/K0828F370 B234 SZ G828 OSNAB A308 KD W240 KESED R116 RATKO A307 KEDRA B951 ROGMA ROGMA2Z |
| Aircraft | A319/M-SDE3FGHIRWY/LB1 |
Departure
| Time | N/A |
|---|---|
| Airport | Mineralnye Vody Airport (URMM) |
Arrival
| Time | 2026-04-30 21:21 |
|---|---|
| Airport | Krasnoyarsk International Airport (UNKL) |
| Time | Latitude | Longitude | Altitude | Speed | Heading |
|---|---|---|---|---|---|
| 2026-04-30 17:39 | 46.86939 | 50.86090 | 35116 ft | 502 kts | 66° |
| 2026-04-30 17:42 | 47.00739 | 51.32888 | 35101 ft | 501 kts | 67° |
| 2026-04-30 17:43 | 47.07576 | 51.56424 | 35083 ft | 502 kts | 68° |
| 2026-04-30 17:44 | 47.16786 | 51.83849 | 35072 ft | 502 kts | 47° |
| 2026-04-30 17:47 | 47.38263 | 52.17711 | 35069 ft | 503 kts | 46° |
| 2026-04-30 17:48 | 47.54920 | 52.44235 | 35078 ft | 503 kts | 46° |
| 2026-04-30 17:50 | 47.73814 | 52.74653 | 35103 ft | 500 kts | 47° |
| 2026-04-30 17:52 | 47.87885 | 52.97494 | 35082 ft | 498 kts | 48° |
| 2026-04-30 17:54 | 48.08773 | 53.31813 | 35094 ft | 496 kts | 48° |
| 2026-04-30 17:56 | 48.27285 | 53.62559 | 35062 ft | 496 kts | 49° |
| 2026-04-30 17:58 | 48.41112 | 53.85778 | 35054 ft | 497 kts | 49° |
| 2026-04-30 18:00 | 48.59475 | 54.16946 | 35049 ft | 497 kts | 50° |
| 2026-04-30 18:01 | 48.70935 | 54.36548 | 35038 ft | 497 kts | 50° |
| 2026-04-30 18:02 | 48.84624 | 54.60214 | 35036 ft | 497 kts | 51° |
| 2026-04-30 18:04 | 48.98228 | 54.83937 | 35030 ft | 497 kts | 51° |
| 2026-04-30 18:06 | 49.16345 | 55.15870 | 35024 ft | 498 kts | 52° |
| 2026-04-30 18:08 | 49.32160 | 55.44033 | 35002 ft | 498 kts | 52° |
| 2026-04-30 18:10 | 49.50139 | 55.76440 | 35011 ft | 498 kts | 53° |
| 2026-04-30 18:11 | 49.65765 | 56.04940 | 34977 ft | 498 kts | 53° |
| 2026-04-30 18:13 | 49.76892 | 56.25418 | 34979 ft | 497 kts | 53° |
| 2026-04-30 18:14 | 49.87970 | 56.45991 | 34951 ft | 497 kts | 54° |
| 2026-04-30 18:15 | 50.00506 | 56.69337 | 34956 ft | 497 kts | 54° |
| 2026-04-30 18:16 | 50.09332 | 56.85901 | 34940 ft | 497 kts | 54° |
| 2026-04-30 18:17 | 50.13735 | 56.94215 | 34961 ft | 497 kts | 54° |
| 2026-04-30 18:18 | 50.20321 | 57.06708 | 34930 ft | 497 kts | 55° |
| 2026-04-30 18:18 | 50.24703 | 57.15057 | 34931 ft | 497 kts | 55° |
| 2026-04-30 18:19 | 50.29032 | 57.23391 | 34908 ft | 496 kts | 56° |
| 2026-04-30 18:19 | 50.33309 | 57.31872 | 34909 ft | 496 kts | 56° |
| 2026-04-30 18:20 | 50.37559 | 57.40389 | 34892 ft | 496 kts | 56° |
| 2026-04-30 18:20 | 50.41819 | 57.48888 | 34908 ft | 496 kts | 56° |
| 2026-04-30 18:21 | 50.46079 | 57.57384 | 34923 ft | 495 kts | 56° |
| 2026-04-30 18:21 | 50.50330 | 57.65903 | 34924 ft | 495 kts | 56° |
| 2026-04-30 18:22 | 50.54574 | 57.74438 | 34903 ft | 495 kts | 57° |
| 2026-04-30 18:22 | 50.60926 | 57.87269 | 34908 ft | 495 kts | 57° |
| 2026-04-30 18:23 | 50.65122 | 57.95785 | 34913 ft | 495 kts | 57° |
| 2026-04-30 18:23 | 50.69345 | 58.04369 | 34882 ft | 495 kts | 57° |
| 2026-04-30 18:24 | 50.75670 | 58.17293 | 34891 ft | 496 kts | 58° |
| 2026-04-30 18:25 | 50.79889 | 58.25946 | 34894 ft | 497 kts | 58° |
| 2026-04-30 18:25 | 50.86232 | 58.38936 | 34899 ft | 497 kts | 58° |
| 2026-04-30 18:26 | 50.92565 | 58.52011 | 34895 ft | 499 kts | 58° |
| 2026-04-30 18:27 | 50.98910 | 58.65128 | 34900 ft | 500 kts | 58° |
| 2026-04-30 18:28 | 51.05392 | 58.78159 | 34886 ft | 501 kts | 58° |
| 2026-04-30 18:28 | 51.11839 | 58.91185 | 34894 ft | 502 kts | 58° |
| 2026-04-30 18:29 | 51.20437 | 59.08754 | 34853 ft | 503 kts | 58° |
| 2026-04-30 18:30 | 51.28996 | 59.26374 | 34879 ft | 501 kts | 58° |
| 2026-04-30 18:31 | 51.35378 | 59.39643 | 34880 ft | 501 kts | 58° |
| 2026-04-30 18:32 | 51.41723 | 59.52930 | 34883 ft | 500 kts | 58° |
| 2026-04-30 18:33 | 51.48023 | 59.66173 | 34888 ft | 500 kts | 58° |
| 2026-04-30 18:33 | 51.54349 | 59.79516 | 34861 ft | 501 kts | 59° |
| 2026-04-30 18:34 | 51.60656 | 59.92933 | 34868 ft | 502 kts | 59° |
| 2026-04-30 18:35 | 51.64864 | 60.01887 | 34865 ft | 502 kts | 59° |
| 2026-04-30 18:35 | 51.69071 | 60.10873 | 34878 ft | 502 kts | 59° |
| 2026-04-30 18:36 | 51.75362 | 60.24395 | 34878 ft | 501 kts | 59° |
| 2026-04-30 18:37 | 51.81617 | 60.37919 | 34886 ft | 501 kts | 59° |
| 2026-04-30 18:37 | 51.85799 | 60.46931 | 34887 ft | 501 kts | 58° |
| 2026-04-30 18:38 | 51.89995 | 60.55923 | 34876 ft | 501 kts | 58° |
| 2026-04-30 18:38 | 51.94176 | 60.64950 | 34894 ft | 501 kts | 58° |
| 2026-04-30 18:39 | 51.98340 | 60.74004 | 34901 ft | 501 kts | 58° |
| 2026-04-30 18:39 | 52.02509 | 60.83073 | 34901 ft | 501 kts | 58° |
| 2026-04-30 18:40 | 52.06668 | 60.92160 | 34884 ft | 501 kts | 58° |
| 2026-04-30 18:40 | 52.10816 | 61.01272 | 34896 ft | 501 kts | 58° |
| 2026-04-30 18:41 | 52.14955 | 61.10400 | 34901 ft | 501 kts | 58° |
| 2026-04-30 18:41 | 52.19097 | 61.19535 | 34931 ft | 501 kts | 58° |
| 2026-04-30 18:42 | 52.23237 | 61.28698 | 34899 ft | 502 kts | 58° |
| 2026-04-30 18:42 | 52.29401 | 61.42456 | 34902 ft | 503 kts | 58° |
| 2026-04-30 18:45 | 52.52029 | 61.93506 | 34917 ft | 503 kts | 59° |
| 2026-04-30 18:46 | 52.56120 | 62.02843 | 34901 ft | 503 kts | 59° |
| 2026-04-30 18:46 | 52.60179 | 62.12185 | 34914 ft | 502 kts | 59° |
| 2026-04-30 18:47 | 52.64140 | 62.21629 | 34919 ft | 501 kts | 60° |
| 2026-04-30 18:47 | 52.68043 | 62.31125 | 34921 ft | 500 kts | 60° |
| 2026-04-30 18:48 | 52.71953 | 62.40626 | 34900 ft | 500 kts | 60° |
| 2026-04-30 18:48 | 52.75876 | 62.50115 | 34912 ft | 500 kts | 60° |
| 2026-04-30 18:49 | 52.79788 | 62.59625 | 34916 ft | 500 kts | 60° |
| 2026-04-30 18:49 | 52.83662 | 62.69081 | 34922 ft | 500 kts | 60° |
| 2026-04-30 18:50 | 52.87555 | 62.78625 | 34916 ft | 501 kts | 60° |
| 2026-04-30 18:50 | 52.91446 | 62.88207 | 34910 ft | 502 kts | 60° |
| 2026-04-30 18:51 | 52.95335 | 62.97821 | 34913 ft | 502 kts | 60° |
| 2026-04-30 18:51 | 52.99227 | 63.07454 | 34918 ft | 503 kts | 60° |
| 2026-04-30 18:52 | 53.03111 | 63.17106 | 34929 ft | 503 kts | 60° |
| 2026-04-30 18:52 | 53.06983 | 63.26779 | 34937 ft | 503 kts | 60° |
| 2026-04-30 18:53 | 53.10850 | 63.36475 | 34940 ft | 503 kts | 60° |
| 2026-04-30 18:53 | 53.14711 | 63.46195 | 34948 ft | 503 kts | 60° |
| 2026-04-30 18:54 | 53.18551 | 63.55946 | 34927 ft | 502 kts | 61° |
| 2026-04-30 18:54 | 53.22098 | 63.65938 | 34934 ft | 500 kts | 66° |
| 2026-04-30 18:55 | 53.25325 | 63.76195 | 34934 ft | 499 kts | 67° |
| 2026-04-30 18:55 | 53.30137 | 63.91542 | 34931 ft | 499 kts | 66° |
| 2026-04-30 18:56 | 53.35112 | 64.06856 | 34933 ft | 498 kts | 65° |
| 2026-04-30 18:57 | 53.40035 | 64.22160 | 34935 ft | 497 kts | 66° |
| 2026-04-30 18:57 | 53.43287 | 64.32385 | 34933 ft | 497 kts | 66° |
| 2026-04-30 18:58 | 53.48149 | 64.47755 | 34916 ft | 497 kts | 65° |
| 2026-04-30 18:59 | 53.53000 | 64.63156 | 34924 ft | 497 kts | 66° |
| 2026-04-30 19:00 | 53.58899 | 64.81982 | 34927 ft | 497 kts | 66° |
| 2026-04-30 19:01 | 53.65303 | 65.02648 | 34915 ft | 498 kts | 66° |
| 2026-04-30 19:02 | 53.70099 | 65.18241 | 34922 ft | 499 kts | 66° |
| 2026-04-30 19:03 | 53.76036 | 65.39415 | 34926 ft | 499 kts | 69° |
| 2026-04-30 19:04 | 53.81949 | 65.60742 | 34923 ft | 502 kts | 68° |
| 2026-04-30 19:05 | 53.87885 | 65.82101 | 34915 ft | 503 kts | 69° |
| 2026-04-30 19:06 | 53.93782 | 66.03673 | 34928 ft | 504 kts | 69° |
| 2026-04-30 19:06 | 53.98198 | 66.19886 | 34934 ft | 504 kts | 69° |
| 2026-04-30 19:07 | 54.02578 | 66.36163 | 34922 ft | 505 kts | 69° |
| 2026-04-30 19:08 | 54.08623 | 66.57767 | 34927 ft | 506 kts | 67° |
| 2026-04-30 19:09 | 54.13267 | 66.73844 | 34926 ft | 506 kts | 68° |
| 2026-04-30 19:09 | 54.16339 | 66.84744 | 34934 ft | 506 kts | 68° |
| 2026-04-30 19:10 | 54.22377 | 67.06400 | 34946 ft | 507 kts | 68° |
| 2026-04-30 19:11 | 54.26917 | 67.22719 | 34946 ft | 506 kts | 68° |
| 2026-04-30 19:12 | 54.29926 | 67.33620 | 34957 ft | 506 kts | 68° |
| 2026-04-30 19:12 | 54.32923 | 67.44527 | 34960 ft | 506 kts | 68° |
| 2026-04-30 19:13 | 54.38873 | 67.66395 | 34964 ft | 505 kts | 69° |
| 2026-04-30 19:14 | 54.41779 | 67.77387 | 34968 ft | 505 kts | 69° |
| 2026-04-30 19:14 | 54.44640 | 67.88402 | 34968 ft | 505 kts | 69° |
| 2026-04-30 19:15 | 54.47482 | 67.99366 | 34972 ft | 505 kts | 69° |
| 2026-04-30 19:15 | 54.51769 | 68.15928 | 34969 ft | 505 kts | 69° |
| 2026-04-30 19:16 | 54.54614 | 68.27001 | 34975 ft | 505 kts | 69° |
| 2026-04-30 19:17 | 54.58853 | 68.43624 | 34990 ft | 504 kts | 70° |
| 2026-04-30 19:17 | 54.63068 | 68.60280 | 34984 ft | 505 kts | 69° |
| 2026-04-30 19:18 | 54.67271 | 68.76942 | 35005 ft | 504 kts | 69° |
| 2026-04-30 19:19 | 54.70049 | 68.88067 | 35006 ft | 504 kts | 70° |
| 2026-04-30 19:19 | 54.74179 | 69.04712 | 34998 ft | 504 kts | 69° |
| 2026-04-30 19:20 | 54.76931 | 69.15887 | 35000 ft | 504 kts | 70° |
| 2026-04-30 19:20 | 54.78701 | 69.27495 | 35003 ft | 495 kts | 88° |
| 2026-04-30 19:21 | 54.79015 | 69.33412 | 35010 ft | 494 kts | 89° |
| 2026-04-30 19:22 | 54.80215 | 69.57127 | 35002 ft | 494 kts | 89° |
| 2026-04-30 19:23 | 54.81942 | 69.92813 | 35014 ft | 496 kts | 89° |
| 2026-04-30 19:24 | 54.82765 | 70.10683 | 35012 ft | 496 kts | 89° |
| 2026-04-30 19:25 | 54.84075 | 70.40534 | 35024 ft | 497 kts | 89° |
| 2026-04-30 19:26 | 54.85076 | 70.64440 | 35033 ft | 497 kts | 89° |
| 2026-04-30 19:27 | 54.85801 | 70.82378 | 35026 ft | 496 kts | 89° |
| 2026-04-30 19:28 | 54.86481 | 71.00316 | 35035 ft | 496 kts | 89° |
| 2026-04-30 19:29 | 54.87712 | 71.24134 | 35029 ft | 497 kts | 87° |
| 2026-04-30 19:30 | 54.88990 | 71.48010 | 35016 ft | 495 kts | 88° |
| 2026-04-30 19:31 | 54.90131 | 71.71825 | 35050 ft | 494 kts | 88° |
| 2026-04-30 19:31 | 54.90983 | 71.89663 | 35046 ft | 494 kts | 88° |
| 2026-04-30 19:32 | 54.91532 | 72.01558 | 35048 ft | 494 kts | 88° |
| 2026-04-30 19:32 | 54.92066 | 72.13481 | 35056 ft | 494 kts | 88° |
| 2026-04-30 19:33 | 54.92581 | 72.25386 | 35054 ft | 494 kts | 88° |
| 2026-04-30 19:33 | 54.93091 | 72.37214 | 35051 ft | 493 kts | 88° |
| 2026-04-30 19:34 | 54.93597 | 72.49196 | 35050 ft | 494 kts | 88° |
| 2026-04-30 19:35 | 54.94324 | 72.67073 | 35062 ft | 494 kts | 88° |
| 2026-04-30 19:35 | 54.94793 | 72.78920 | 35063 ft | 494 kts | 88° |
| 2026-04-30 19:36 | 54.95249 | 72.90845 | 35065 ft | 494 kts | 88° |
| 2026-04-30 19:36 | 54.95908 | 73.08715 | 35064 ft | 493 kts | 88° |
| 2026-04-30 19:37 | 54.96331 | 73.20640 | 35071 ft | 493 kts | 89° |
| 2026-04-30 19:37 | 54.96851 | 73.32543 | 35068 ft | 494 kts | 82° |
| 2026-04-30 19:38 | 54.98058 | 73.44331 | 35069 ft | 495 kts | 81° |
| 2026-04-30 19:38 | 54.99237 | 73.56147 | 35066 ft | 495 kts | 81° |
| 2026-04-30 19:39 | 55.00389 | 73.67967 | 35067 ft | 495 kts | 81° |
| 2026-04-30 19:39 | 55.01533 | 73.79804 | 35060 ft | 495 kts | 81° |
| 2026-04-30 19:40 | 55.02672 | 73.91638 | 35064 ft | 495 kts | 82° |
| 2026-04-30 19:40 | 55.03800 | 74.03486 | 35060 ft | 495 kts | 81° |
| 2026-04-30 19:41 | 55.04900 | 74.15270 | 35064 ft | 495 kts | 82° |
| 2026-04-30 19:41 | 55.05980 | 74.27138 | 35065 ft | 496 kts | 82° |
| 2026-04-30 19:42 | 55.07034 | 74.39025 | 35073 ft | 496 kts | 82° |
| 2026-04-30 19:42 | 55.08087 | 74.50912 | 35076 ft | 496 kts | 82° |
| 2026-04-30 19:43 | 55.09134 | 74.62819 | 35073 ft | 496 kts | 82° |
| 2026-04-30 19:44 | 55.10502 | 74.78689 | 35079 ft | 497 kts | 82° |
| 2026-04-30 19:44 | 55.11520 | 74.90628 | 35082 ft | 497 kts | 82° |
| 2026-04-30 19:45 | 55.12522 | 75.02574 | 35084 ft | 497 kts | 82° |
| 2026-04-30 19:45 | 55.13516 | 75.14534 | 35071 ft | 497 kts | 82° |
| 2026-04-30 19:46 | 55.14497 | 75.26468 | 35093 ft | 496 kts | 82° |
| 2026-04-30 19:46 | 55.15467 | 75.38405 | 35100 ft | 496 kts | 82° |
| 2026-04-30 19:47 | 55.16426 | 75.50340 | 35102 ft | 495 kts | 82° |
| 2026-04-30 19:47 | 55.17364 | 75.62281 | 35102 ft | 495 kts | 82° |
| 2026-04-30 19:48 | 55.18290 | 75.74137 | 35101 ft | 495 kts | 82° |
| 2026-04-30 19:48 | 55.19235 | 75.86059 | 35100 ft | 494 kts | 82° |
| 2026-04-30 19:49 | 55.20169 | 75.97979 | 35102 ft | 494 kts | 82° |
| 2026-04-30 19:49 | 55.21532 | 76.15857 | 35103 ft | 494 kts | 82° |
| 2026-04-30 19:50 | 55.22425 | 76.27776 | 35096 ft | 493 kts | 82° |
| 2026-04-30 19:50 | 55.23309 | 76.39694 | 35091 ft | 493 kts | 82° |
| 2026-04-30 19:51 | 55.24179 | 76.51524 | 35091 ft | 493 kts | 83° |
| 2026-04-30 19:51 | 55.25033 | 76.63452 | 35088 ft | 493 kts | 83° |
| 2026-04-30 19:52 | 55.25876 | 76.75366 | 35093 ft | 492 kts | 83° |
| 2026-04-30 19:52 | 55.26711 | 76.87273 | 35093 ft | 492 kts | 83° |
| 2026-04-30 19:53 | 55.27525 | 76.99178 | 35090 ft | 492 kts | 83° |
| 2026-04-30 19:53 | 55.28333 | 77.11093 | 35088 ft | 492 kts | 83° |
| 2026-04-30 19:54 | 55.29116 | 77.22925 | 35092 ft | 491 kts | 83° |
| 2026-04-30 19:54 | 55.29892 | 77.34841 | 35094 ft | 491 kts | 83° |
| 2026-04-30 19:55 | 55.30661 | 77.46751 | 35095 ft | 491 kts | 83° |
| 2026-04-30 19:55 | 55.31417 | 77.58665 | 35097 ft | 491 kts | 83° |
| 2026-04-30 19:56 | 55.32165 | 77.70587 | 35094 ft | 491 kts | 83° |
| 2026-04-30 19:56 | 55.32890 | 77.82442 | 35095 ft | 491 kts | 83° |
| 2026-04-30 19:57 | 55.33607 | 77.94372 | 35094 ft | 491 kts | 83° |
| 2026-04-30 19:57 | 55.34316 | 78.06315 | 35097 ft | 491 kts | 83° |
| 2026-04-30 19:58 | 55.35013 | 78.18256 | 35097 ft | 491 kts | 83° |
| 2026-04-30 19:58 | 55.35824 | 78.30181 | 35098 ft | 490 kts | 76° |
| 2026-04-30 19:59 | 55.37756 | 78.41637 | 35102 ft | 489 kts | 70° |
| 2026-04-30 20:00 | 55.40831 | 78.58738 | 35102 ft | 489 kts | 71° |
| 2026-04-30 20:00 | 55.42866 | 78.70149 | 35104 ft | 489 kts | 70° |
| 2026-04-30 20:01 | 55.45900 | 78.87317 | 35110 ft | 489 kts | 71° |
| 2026-04-30 20:01 | 55.47893 | 78.98701 | 35111 ft | 489 kts | 71° |
| 2026-04-30 20:02 | 55.50890 | 79.15908 | 35114 ft | 489 kts | 71° |
| 2026-04-30 20:03 | 55.53860 | 79.33149 | 35117 ft | 489 kts | 71° |
| 2026-04-30 20:03 | 55.55823 | 79.44665 | 35118 ft | 489 kts | 71° |
| 2026-04-30 20:04 | 55.57766 | 79.56109 | 35121 ft | 489 kts | 71° |
| 2026-04-30 20:05 | 55.60671 | 79.73403 | 35124 ft | 489 kts | 71° |
| 2026-04-30 20:05 | 55.62627 | 79.91089 | 35127 ft | 492 kts | 89° |
| 2026-04-30 20:06 | 55.61714 | 80.03078 | 35125 ft | 493 kts | 103° |
| 2026-04-30 20:06 | 55.60178 | 80.14916 | 35126 ft | 494 kts | 103° |
| 2026-04-30 20:07 | 55.58638 | 80.26746 | 35127 ft | 494 kts | 103° |
| 2026-04-30 20:08 | 55.56288 | 80.44477 | 35138 ft | 494 kts | 103° |
| 2026-04-30 20:08 | 55.54705 | 80.56306 | 35144 ft | 494 kts | 103° |
| 2026-04-30 20:09 | 55.53119 | 80.68046 | 35151 ft | 494 kts | 103° |
| 2026-04-30 20:09 | 55.50705 | 80.85755 | 35153 ft | 495 kts | 103° |
| 2026-04-30 20:10 | 55.48273 | 81.03441 | 35157 ft | 495 kts | 103° |
| 2026-04-30 20:11 | 55.45803 | 81.21096 | 35154 ft | 494 kts | 103° |
| 2026-04-30 20:11 | 55.44136 | 81.32742 | 35170 ft | 493 kts | 103° |
| 2026-04-30 20:12 | 55.41583 | 81.50291 | 35173 ft | 493 kts | 103° |
| 2026-04-30 20:13 | 55.39885 | 81.61955 | 35174 ft | 492 kts | 103° |
| 2026-04-30 20:13 | 55.38169 | 81.73623 | 35175 ft | 492 kts | 103° |
| 2026-04-30 20:14 | 55.36444 | 81.85269 | 35178 ft | 492 kts | 103° |
| 2026-04-30 20:14 | 55.34712 | 81.96899 | 35178 ft | 491 kts | 103° |
| 2026-04-30 20:15 | 55.32976 | 82.08432 | 35183 ft | 491 kts | 104° |
| 2026-04-30 20:15 | 55.31217 | 82.20017 | 35181 ft | 491 kts | 104° |
| 2026-04-30 20:16 | 55.29447 | 82.31605 | 35191 ft | 491 kts | 103° |
| 2026-04-30 20:16 | 55.28189 | 82.43320 | 35180 ft | 487 kts | 90° |
| 2026-04-30 20:17 | 55.28271 | 82.55128 | 35188 ft | 484 kts | 86° |
| 2026-04-30 20:17 | 55.28400 | 82.66930 | 35189 ft | 483 kts | 86° |
| 2026-04-30 20:18 | 55.28502 | 82.78727 | 35191 ft | 483 kts | 86° |
| 2026-04-30 20:18 | 55.28596 | 82.90501 | 35199 ft | 483 kts | 86° |
| 2026-04-30 20:19 | 55.28688 | 83.02274 | 35201 ft | 482 kts | 86° |
| 2026-04-30 20:19 | 55.28772 | 83.13968 | 35198 ft | 482 kts | 86° |
| 2026-04-30 20:20 | 55.28846 | 83.25733 | 35200 ft | 482 kts | 86° |
| 2026-04-30 20:20 | 55.28903 | 83.37500 | 35212 ft | 482 kts | 86° |
| 2026-04-30 20:21 | 55.28942 | 83.49263 | 35209 ft | 482 kts | 86° |
| 2026-04-30 20:21 | 55.28974 | 83.61023 | 35206 ft | 482 kts | 86° |
| 2026-04-30 20:22 | 55.28998 | 83.72781 | 35203 ft | 482 kts | 86° |
| 2026-04-30 20:22 | 55.29015 | 83.84548 | 35204 ft | 482 kts | 86° |
| 2026-04-30 20:23 | 55.29022 | 83.96234 | 35203 ft | 482 kts | 86° |
| 2026-04-30 20:23 | 55.29009 | 84.07995 | 35201 ft | 482 kts | 87° |
| 2026-04-30 20:24 | 55.28981 | 84.19757 | 35200 ft | 482 kts | 87° |
| 2026-04-30 20:24 | 55.28950 | 84.31523 | 35201 ft | 482 kts | 87° |
| 2026-04-30 20:25 | 55.28877 | 84.49153 | 35212 ft | 482 kts | 87° |
| 2026-04-30 20:26 | 55.28782 | 84.66749 | 35200 ft | 482 kts | 87° |
| 2026-04-30 20:26 | 55.28668 | 84.84385 | 35198 ft | 482 kts | 87° |
| 2026-04-30 20:27 | 55.28465 | 85.07924 | 35214 ft | 482 kts | 87° |
| 2026-04-30 20:28 | 55.28223 | 85.31476 | 35205 ft | 483 kts | 87° |
| 2026-04-30 20:30 | 55.27847 | 85.60918 | 35228 ft | 483 kts | 87° |
| 2026-04-30 20:31 | 55.27304 | 85.96182 | 35225 ft | 483 kts | 87° |
| 2026-04-30 20:32 | 55.26126 | 86.13767 | 35217 ft | 491 kts | 105° |
| 2026-04-30 20:32 | 55.23470 | 86.24848 | 35223 ft | 494 kts | 111° |
| 2026-04-30 20:33 | 55.19244 | 86.41330 | 35208 ft | 494 kts | 111° |
| 2026-04-30 20:34 | 55.15010 | 86.57741 | 35214 ft | 493 kts | 111° |
| 2026-04-30 20:35 | 55.10778 | 86.74037 | 35232 ft | 493 kts | 111° |
| 2026-04-30 20:35 | 55.06500 | 86.90350 | 35222 ft | 493 kts | 111° |
| 2026-04-30 20:36 | 55.03640 | 87.01209 | 35224 ft | 492 kts | 111° |
| 2026-04-30 20:37 | 54.99331 | 87.17473 | 35231 ft | 492 kts | 111° |
| 2026-04-30 20:37 | 54.96445 | 87.28271 | 35241 ft | 492 kts | 111° |
| 2026-04-30 20:38 | 54.93540 | 87.39054 | 35256 ft | 492 kts | 112° |
| 2026-04-30 20:38 | 54.90601 | 87.49794 | 35251 ft | 491 kts | 112° |
| 2026-04-30 20:39 | 54.86179 | 87.65841 | 35244 ft | 491 kts | 112° |
| 2026-04-30 20:40 | 54.81763 | 87.81797 | 35251 ft | 491 kts | 112° |
| 2026-04-30 20:40 | 54.78794 | 87.92471 | 35263 ft | 492 kts | 112° |
| 2026-04-30 20:41 | 54.74312 | 88.08461 | 35278 ft | 492 kts | 112° |
| 2026-04-30 20:41 | 54.71319 | 88.19101 | 35273 ft | 491 kts | 112° |
| 2026-04-30 20:42 | 54.68319 | 88.29710 | 35298 ft | 491 kts | 112° |
| 2026-04-30 20:43 | 54.64288 | 88.43855 | 35309 ft | 490 kts | 112° |
| 2026-04-30 20:43 | 54.61292 | 88.54330 | 35306 ft | 490 kts | 112° |
| 2026-04-30 20:44 | 54.57601 | 88.70561 | 35281 ft | 479 kts | 95° |
| 2026-04-30 20:45 | 54.56224 | 88.93216 | 35314 ft | 475 kts | 90° |
| 2026-04-30 20:45 | 54.55550 | 89.04539 | 35304 ft | 475 kts | 90° |
| 2026-04-30 20:46 | 54.54169 | 89.27189 | 35297 ft | 475 kts | 91° |
| 2026-04-30 20:47 | 54.53119 | 89.44164 | 35288 ft | 475 kts | 91° |
| 2026-04-30 20:48 | 54.52048 | 89.61140 | 35273 ft | 476 kts | 91° |
| 2026-04-30 20:48 | 54.51313 | 89.72456 | 35272 ft | 476 kts | 91° |
| 2026-04-30 20:49 | 54.50569 | 89.83712 | 35272 ft | 476 kts | 91° |
| 2026-04-30 20:50 | 54.49435 | 90.00682 | 35283 ft | 476 kts | 91° |
| 2026-04-30 20:50 | 54.48664 | 90.11970 | 35281 ft | 474 kts | 91° |
| 2026-04-30 20:51 | 54.47884 | 90.23228 | 35263 ft | 474 kts | 91° |
| 2026-04-30 20:51 | 54.46708 | 90.40098 | 35260 ft | 473 kts | 92° |
| 2026-04-30 20:52 | 54.45913 | 90.51331 | 35254 ft | 474 kts | 92° |
| 2026-04-30 20:53 | 54.44682 | 90.68180 | 35263 ft | 473 kts | 92° |
| 2026-04-30 20:53 | 54.43847 | 90.79390 | 35262 ft | 473 kts | 92° |
| 2026-04-30 20:54 | 54.42589 | 90.96180 | 35252 ft | 472 kts | 92° |
| 2026-04-30 20:55 | 54.41305 | 91.12968 | 35264 ft | 472 kts | 92° |
| 2026-04-30 20:55 | 54.40431 | 91.24129 | 35257 ft | 472 kts | 92° |
| 2026-04-30 20:56 | 54.40757 | 91.35054 | 35254 ft | 450 kts | 66° |
| 2026-04-30 20:56 | 54.41993 | 91.39891 | 35249 ft | 438 kts | 52° |
| 2026-04-30 20:56 | 54.46055 | 91.47107 | 35236 ft | 417 kts | 27° |
| 2026-04-30 20:57 | 54.48618 | 91.49310 | 35230 ft | 409 kts | 15° |
| 2026-04-30 20:57 | 54.51356 | 91.50484 | 35232 ft | 403 kts | 4° |
| 2026-04-30 20:57 | 54.54146 | 91.50752 | 35225 ft | 401 kts | 359° |
| 2026-04-30 20:58 | 54.62526 | 91.51171 | 35218 ft | 403 kts | 359° |
| 2026-04-30 20:58 | 54.68134 | 91.51458 | 35213 ft | 403 kts | 359° |
| 2026-04-30 20:59 | 54.76561 | 91.51894 | 35229 ft | 404 kts | 359° |
| 2026-04-30 21:00 | 54.87804 | 91.52488 | 35225 ft | 404 kts | 359° |
| 2026-04-30 21:01 | 54.96247 | 91.52919 | 35229 ft | 405 kts | 359° |
| 2026-04-30 21:02 | 55.04692 | 91.53342 | 35246 ft | 404 kts | 358° |
| 2026-04-30 21:02 | 55.10307 | 91.53582 | 35247 ft | 404 kts | 358° |
| 2026-04-30 21:03 | 55.15924 | 91.53826 | 35202 ft | 404 kts | 358° |
| 2026-04-30 21:03 | 55.18751 | 91.53953 | 34513 ft | 408 kts | 358° |
| 2026-04-30 21:03 | 55.21595 | 91.54078 | 33615 ft | 410 kts | 358° |
| 2026-04-30 21:03 | 55.24452 | 91.54202 | 32699 ft | 412 kts | 358° |
| 2026-04-30 21:04 | 55.27328 | 91.54325 | 31832 ft | 414 kts | 358° |
| 2026-04-30 21:04 | 55.30210 | 91.54451 | 30967 ft | 415 kts | 358° |
| 2026-04-30 21:04 | 55.36000 | 91.54743 | 29143 ft | 420 kts | 0° |
| 2026-04-30 21:05 | 55.38874 | 91.55556 | 28228 ft | 429 kts | 10° |
| 2026-04-30 21:05 | 55.41756 | 91.57390 | 27312 ft | 440 kts | 21° |
| 2026-04-30 21:05 | 55.44375 | 91.60158 | 26451 ft | 452 kts | 32° |
| 2026-04-30 21:05 | 55.46752 | 91.63895 | 25595 ft | 463 kts | 40° |
| 2026-04-30 21:06 | 55.49028 | 91.67952 | 24787 ft | 467 kts | 40° |
| 2026-04-30 21:06 | 55.51307 | 91.72020 | 24001 ft | 465 kts | 40° |
| 2026-04-30 21:06 | 55.53579 | 91.76088 | 23102 ft | 462 kts | 40° |
| 2026-04-30 21:06 | 55.55825 | 91.80116 | 22194 ft | 458 kts | 41° |
| 2026-04-30 21:07 | 55.58053 | 91.84108 | 21297 ft | 454 kts | 41° |
| 2026-04-30 21:07 | 55.60262 | 91.88069 | 20441 ft | 450 kts | 41° |
| 2026-04-30 21:07 | 55.62450 | 91.91999 | 19605 ft | 447 kts | 41° |
| 2026-04-30 21:07 | 55.64624 | 91.95908 | 18750 ft | 445 kts | 42° |
| 2026-04-30 21:08 | 55.66784 | 91.99804 | 17864 ft | 442 kts | 42° |
| 2026-04-30 21:08 | 55.68966 | 92.03598 | 17211 ft | 433 kts | 37° |
| 2026-04-30 21:08 | 55.71240 | 92.06903 | 16990 ft | 416 kts | 36° |
| 2026-04-30 21:08 | 55.73437 | 92.10103 | 16852 ft | 401 kts | 36° |
| 2026-04-30 21:09 | 55.75548 | 92.13186 | 16722 ft | 387 kts | 36° |
| 2026-04-30 21:09 | 55.77589 | 92.16165 | 16602 ft | 373 kts | 35° |
| 2026-04-30 21:09 | 55.79560 | 92.19039 | 16480 ft | 360 kts | 35° |
| 2026-04-30 21:09 | 55.81463 | 92.21806 | 16353 ft | 348 kts | 35° |
| 2026-04-30 21:10 | 55.83306 | 92.24487 | 16224 ft | 337 kts | 35° |
| 2026-04-30 21:10 | 55.85088 | 92.27087 | 16114 ft | 326 kts | 34° |
| 2026-04-30 21:10 | 55.86824 | 92.29628 | 15927 ft | 319 kts | 34° |
| 2026-04-30 21:10 | 55.88531 | 92.32121 | 15622 ft | 316 kts | 34° |
| 2026-04-30 21:11 | 55.90226 | 92.34592 | 15278 ft | 314 kts | 34° |
| 2026-04-30 21:11 | 55.91910 | 92.37049 | 14947 ft | 312 kts | 35° |
| 2026-04-30 21:11 | 55.93583 | 92.39499 | 14620 ft | 311 kts | 35° |
| 2026-04-30 21:11 | 55.95245 | 92.41945 | 14293 ft | 309 kts | 35° |
| 2026-04-30 21:12 | 55.96903 | 92.44385 | 13955 ft | 308 kts | 35° |
| 2026-04-30 21:12 | 55.98552 | 92.46807 | 13567 ft | 307 kts | 35° |
| 2026-04-30 21:12 | 56.00195 | 92.49224 | 13189 ft | 305 kts | 36° |
| 2026-04-30 21:12 | 56.01848 | 92.51659 | 12428 ft | 313 kts | 36° |
| 2026-04-30 21:13 | 56.03531 | 92.54137 | 11448 ft | 323 kts | 36° |
| 2026-04-30 21:13 | 56.05282 | 92.56720 | 10456 ft | 330 kts | 37° |
| 2026-04-30 21:13 | 56.07071 | 92.59369 | 9339 ft | 336 kts | 37° |
| 2026-04-30 21:13 | 56.08882 | 92.62059 | 8193 ft | 339 kts | 38° |
| 2026-04-30 21:14 | 56.10772 | 92.64685 | 6688 ft | 349 kts | 29° |
| 2026-04-30 21:14 | 56.13087 | 92.65991 | 5128 ft | 354 kts | 2° |
| 2026-04-30 21:14 | 56.15499 | 92.65247 | 3717 ft | 354 kts | 334° |
| 2026-04-30 21:14 | 56.17337 | 92.62560 | 3034 ft | 333 kts | 304° |
| 2026-04-30 21:15 | 56.18120 | 92.58894 | 2750 ft | 303 kts | 276° |
| 2026-04-30 21:15 | 56.18010 | 92.55338 | 2606 ft | 275 kts | 252° |
| 2026-04-30 21:15 | 56.17088 | 92.52547 | 2483 ft | 249 kts | 223° |
| 2026-04-30 21:15 | 56.15701 | 92.51006 | 2478 ft | 226 kts | 200° |
| 2026-04-30 21:16 | 56.14203 | 92.50595 | 2480 ft | 215 kts | 178° |
| 2026-04-30 21:16 | 56.12771 | 92.51228 | 2481 ft | 209 kts | 155° |
| 2026-04-30 21:16 | 56.11640 | 92.52674 | 2510 ft | 193 kts | 136° |
| 2026-04-30 21:16 | 56.10908 | 92.54577 | 2478 ft | 179 kts | 116° |
| 2026-04-30 21:17 | 56.10591 | 92.56558 | 2476 ft | 157 kts | 98° |
| 2026-04-30 21:17 | 56.10597 | 92.58453 | 2474 ft | 149 kts | 82° |
| 2026-04-30 21:17 | 56.10877 | 92.60226 | 2481 ft | 147 kts | 66° |
| 2026-04-30 21:17 | 56.11404 | 92.61786 | 2484 ft | 146 kts | 50° |
| 2026-04-30 21:18 | 56.12179 | 92.62944 | 2388 ft | 146 kts | 21° |
| 2026-04-30 21:18 | 56.13157 | 92.63144 | 2277 ft | 142 kts | 346° |
| 2026-04-30 21:18 | 56.14005 | 92.62390 | 2181 ft | 138 kts | 313° |
| 2026-04-30 21:18 | 56.14503 | 92.60979 | 2050 ft | 134 kts | 287° |
| 2026-04-30 21:19 | 56.14873 | 92.59443 | 1873 ft | 134 kts | 289° |
| 2026-04-30 21:19 | 56.15250 | 92.57890 | 1664 ft | 134 kts | 291° |
| 2026-04-30 21:19 | 56.15625 | 92.56364 | 1504 ft | 134 kts | 293° |
| 2026-04-30 21:19 | 56.15983 | 92.54853 | 1322 ft | 133 kts | 290° |
| 2026-04-30 21:20 | 56.16339 | 92.53320 | 1149 ft | 133 kts | 292° |
| 2026-04-30 21:20 | 56.16699 | 92.51802 | 986 ft | 131 kts | 291° |
| 2026-04-30 21:20 | 56.17044 | 92.50353 | 949 ft | 112 kts | 293° |
| 2026-04-30 21:20 | 56.17280 | 92.49352 | 952 ft | 62 kts | 292° |
| 2026-04-30 21:21 | 56.17383 | 92.48917 | 950 ft | 25 kts | 296° |
| 2026-04-30 21:21 | 56.17502 | 92.48691 | 952 ft | 25 kts | 325° |
| 2026-04-30 21:21 | 56.17719 | 92.48406 | 951 ft | 12 kts | 330° |
| 2026-04-30 21:22 | 56.17798 | 92.48432 | 950 ft | 13 kts | 25° |